createdAt,value
2022-10-04T00:00:36.943Z,20.73
2022-10-04T00:03:26.497Z,20.40
2022-10-04T00:05:56.643Z,21.42
2022-10-04T00:08:23.406Z,19.63
2022-10-04T00:11:00.351Z,21.05
2022-10-04T00:13:29.989Z,22.88
2022-10-04T00:15:56.872Z,21.85
2022-10-04T00:18:31.707Z,21.20
2022-10-04T00:21:01.378Z,20.63
2022-10-04T00:23:36.518Z,21.77
2022-10-04T00:26:06.570Z,22.05
2022-10-04T00:28:36.401Z,22.90
2022-10-04T00:31:10.796Z,24.05
2022-10-04T00:33:47.964Z,23.77
2022-10-04T00:36:23.933Z,23.52
2022-10-04T00:39:08.643Z,23.00
2022-10-04T00:41:38.252Z,24.20
2022-10-04T00:44:10.421Z,25.35
2022-10-04T00:46:40.836Z,25.23
2022-10-04T00:49:10.564Z,24.05
2022-10-04T00:51:43.865Z,26.10
2022-10-04T00:54:29.165Z,25.95
2022-10-04T00:57:00.949Z,27.20
2022-10-04T00:59:31.430Z,27.38
2022-10-04T01:02:21.859Z,24.95
2022-10-04T01:05:00.436Z,27.02
2022-10-04T01:07:43.589Z,27.15
2022-10-04T01:10:33.599Z,26.95
2022-10-04T01:13:23.314Z,29.45
2022-10-04T01:16:11.877Z,28.60
2022-10-04T01:18:38.807Z,29.65
2022-10-04T01:21:23.317Z,28.67
2022-10-04T01:23:57.151Z,26.90
2022-10-04T01:26:29.165Z,28.20
2022-10-04T01:29:11.900Z,28.00
2022-10-04T01:31:48.768Z,27.92
2022-10-04T01:34:19.115Z,26.60
2022-10-04T01:36:47.434Z,28.80
2022-10-04T01:39:16.057Z,26.60
2022-10-04T01:41:53.182Z,27.00
2022-10-04T01:44:40.790Z,26.95
2022-10-04T01:47:23.511Z,25.60
2022-10-04T01:49:52.415Z,26.35
2022-10-04T01:52:30.311Z,26.83
2022-10-04T01:55:07.266Z,27.52
2022-10-04T01:57:38.707Z,27.60
2022-10-04T02:00:12.348Z,26.48
2022-10-04T02:02:45.000Z,27.73
2022-10-04T02:05:17.842Z,26.13
2022-10-04T02:07:46.561Z,26.25
2022-10-04T02:10:20.022Z,26.55
2022-10-04T02:12:49.892Z,26.25
2022-10-04T02:15:20.127Z,25.83
2022-10-04T02:17:48.083Z,26.80
2022-10-04T02:20:21.542Z,26.55
2022-10-04T02:22:52.814Z,25.98
2022-10-04T02:25:20.731Z,27.17
2022-10-04T02:27:47.736Z,25.98
2022-10-04T02:30:14.753Z,26.75
2022-10-04T02:32:59.875Z,26.45
2022-10-04T02:35:29.537Z,27.02
2022-10-04T02:38:13.674Z,26.20
2022-10-04T02:41:14.305Z,26.98
2022-10-04T02:44:03.772Z,25.83
2022-10-04T02:46:51.468Z,26.25
2022-10-04T02:49:30.289Z,27.20
2022-10-04T02:52:05.936Z,26.40
2022-10-04T02:54:43.135Z,29.42
2022-10-04T02:57:22.473Z,27.02
2022-10-04T02:59:50.291Z,28.35
2022-10-04T03:02:35.011Z,27.98
2022-10-04T03:05:09.330Z,28.02
2022-10-04T03:07:38.288Z,27.00
2022-10-04T03:10:12.823Z,27.65
2022-10-04T03:12:40.926Z,28.00
2022-10-04T03:15:10.995Z,29.25
2022-10-04T03:17:39.950Z,27.95
2022-10-04T03:20:13.837Z,28.83
2022-10-04T03:22:46.919Z,28.25
2022-10-04T03:25:29.885Z,27.65
2022-10-04T03:28:02.138Z,27.23
2022-10-04T03:30:31.884Z,26.92
2022-10-04T03:32:59.848Z,28.20
2022-10-04T03:35:39.369Z,27.90
2022-10-04T03:38:09.192Z,27.75
2022-10-04T03:40:38.571Z,28.00
2022-10-04T03:43:06.615Z,26.70
2022-10-04T03:45:35.232Z,27.60
2022-10-04T03:48:06.505Z,27.02
2022-10-04T03:50:46.256Z,27.15
2022-10-04T03:53:30.167Z,26.92
2022-10-04T03:56:03.420Z,26.00
2022-10-04T03:58:31.935Z,26.75
2022-10-04T04:01:09.863Z,26.73
2022-10-04T04:03:57.274Z,26.92
2022-10-04T04:06:25.504Z,24.95
2022-10-04T04:08:55.353Z,26.02
2022-10-04T04:11:27.728Z,25.67
2022-10-04T04:14:07.484Z,25.80
2022-10-04T04:16:36.408Z,25.70
2022-10-04T04:19:10.063Z,25.83
2022-10-04T04:21:37.411Z,25.33
2022-10-04T04:24:25.748Z,24.48
2022-10-04T04:26:59.526Z,23.67
2022-10-04T04:29:51.871Z,24.52
2022-10-04T04:32:25.672Z,22.92
2022-10-04T04:34:57.138Z,23.27
2022-10-04T04:37:24.201Z,24.05
2022-10-04T04:39:54.872Z,22.17
2022-10-04T04:42:34.878Z,23.50
2022-10-04T04:45:15.256Z,25.00
2022-10-04T04:48:03.614Z,24.00
2022-10-04T04:50:36.622Z,23.50
2022-10-04T04:53:16.093Z,22.13
2022-10-04T04:56:02.769Z,23.17
2022-10-04T04:58:36.402Z,21.40
2022-10-04T05:01:23.175Z,23.08
2022-10-04T05:04:08.659Z,22.63
2022-10-04T05:06:37.585Z,21.23
2022-10-04T05:09:05.623Z,23.45
2022-10-04T05:11:37.571Z,23.15
2022-10-04T05:16:51.505Z,22.90
2022-10-04T05:19:37.587Z,23.30
2022-10-04T05:22:11.381Z,22.95
2022-10-04T05:24:45.411Z,22.02
2022-10-04T05:27:28.917Z,22.15
2022-10-04T05:30:10.327Z,20.75
2022-10-04T05:33:01.856Z,22.73
2022-10-04T05:35:30.026Z,23.77
2022-10-04T05:38:19.486Z,22.80
2022-10-04T05:41:06.364Z,22.90
2022-10-04T05:43:45.918Z,23.10
2022-10-04T05:46:21.546Z,22.40
2022-10-04T05:48:56.287Z,22.08
2022-10-04T05:51:29.337Z,22.75
2022-10-04T05:54:00.668Z,22.15
2022-10-04T05:56:55.257Z,23.35
2022-10-04T06:00:07.164Z,22.45
2022-10-04T06:02:58.754Z,22.45
2022-10-04T06:05:42.772Z,21.00
2022-10-04T06:08:32.403Z,20.98
2022-10-04T06:11:23.076Z,22.50
2022-10-04T06:14:23.836Z,22.92
2022-10-04T06:17:08.717Z,22.38
2022-10-04T06:20:14.347Z,21.25
2022-10-04T06:22:47.564Z,23.00
2022-10-04T06:25:31.304Z,22.23
2022-10-04T06:28:15.239Z,22.10
2022-10-04T06:31:09.432Z,21.08
2022-10-04T06:33:54.110Z,22.15
2022-10-04T06:37:18.340Z,21.25
2022-10-04T06:40:04.464Z,22.02
2022-10-04T06:42:49.028Z,22.10
2022-10-04T06:45:47.537Z,22.05
2022-10-04T06:48:14.464Z,21.55
2022-10-04T06:50:46.897Z,22.65
2022-10-04T06:53:49.166Z,22.30
2022-10-04T06:59:18.563Z,21.20
2022-10-04T07:01:58.796Z,21.05
2022-10-04T07:04:45.024Z,21.45
2022-10-04T07:07:25.011Z,20.70
2022-10-04T07:10:00.002Z,19.70
2022-10-04T07:12:29.037Z,20.00
2022-10-04T07:15:01.036Z,20.35
2022-10-04T07:17:38.634Z,22.17
2022-10-04T07:20:07.211Z,18.48
2022-10-04T07:22:53.534Z,18.38
2022-10-04T07:25:28.998Z,17.45
2022-10-04T07:28:23.407Z,17.75
2022-10-04T07:30:58.691Z,19.10
2022-10-04T07:33:28.900Z,18.35
2022-10-04T07:36:12.202Z,18.70
2022-10-04T07:38:49.084Z,18.33
2022-10-04T07:41:40.707Z,18.00
2022-10-04T07:46:46.405Z,18.92
2022-10-04T07:49:18.703Z,18.23
2022-10-04T07:52:04.339Z,17.27
2022-10-04T07:55:07.943Z,17.65
2022-10-04T07:57:49.727Z,19.75
2022-10-04T08:03:14.522Z,17.52
2022-10-04T08:06:09.902Z,17.75
2022-10-04T08:08:45.542Z,18.88
2022-10-04T08:11:27.578Z,19.02
2022-10-04T08:14:13.728Z,19.88
2022-10-04T08:16:53.621Z,18.55
2022-10-04T08:19:43.073Z,17.73
2022-10-04T08:22:33.824Z,16.40
2022-10-04T08:25:20.998Z,16.85
2022-10-04T08:28:23.965Z,16.63
2022-10-04T08:31:13.257Z,17.20
2022-10-04T08:34:25.179Z,16.50
2022-10-04T08:37:33.014Z,16.05
2022-10-04T08:40:02.575Z,16.45
2022-10-04T08:43:06.333Z,16.42
2022-10-04T08:46:15.231Z,15.05
2022-10-04T08:49:08.766Z,14.82
2022-10-04T08:51:56.351Z,14.55
2022-10-04T08:54:41.811Z,13.68
2022-10-04T08:57:15.847Z,12.60
2022-10-04T08:59:48.880Z,13.80
2022-10-04T09:02:15.600Z,12.10
2022-10-04T09:04:57.975Z,12.70
2022-10-04T09:07:51.770Z,12.95
2022-10-04T09:10:31.084Z,11.77
2022-10-04T09:13:22.638Z,13.60
2022-10-04T09:15:52.257Z,11.90
2022-10-04T09:18:45.553Z,11.90
2022-10-04T09:21:35.355Z,12.77
2022-10-04T09:24:32.341Z,11.95
2022-10-04T09:27:53.682Z,11.32
2022-10-04T09:30:21.273Z,11.07
2022-10-04T09:33:08.806Z,11.88
2022-10-04T09:35:55.418Z,12.57
2022-10-04T09:38:44.366Z,13.40
2022-10-04T09:41:45.153Z,14.10
2022-10-04T09:44:33.905Z,15.68
2022-10-04T09:47:10.513Z,20.77
2022-10-04T09:50:17.440Z,16.42
2022-10-04T09:53:13.636Z,14.90
2022-10-04T09:55:53.292Z,16.50
2022-10-04T09:58:55.224Z,15.52
2022-10-04T10:04:23.077Z,17.08
2022-10-04T10:07:04.741Z,16.52
2022-10-04T10:12:52.733Z,16.73
2022-10-04T10:15:23.093Z,16.65
2022-10-04T10:18:15.216Z,16.10
2022-10-04T10:21:08.092Z,16.17
2022-10-04T10:23:43.988Z,14.70
2022-10-04T10:26:43.723Z,18.35
2022-10-04T10:29:26.049Z,15.73
2022-10-04T10:32:17.492Z,17.33
2022-10-04T10:34:59.217Z,15.88
2022-10-04T10:37:47.828Z,18.50
2022-10-04T10:40:45.320Z,18.75
2022-10-04T10:43:20.827Z,17.67
2022-10-04T10:46:16.570Z,17.98
2022-10-04T10:49:04.317Z,18.20
2022-10-04T10:51:58.210Z,17.15
2022-10-04T10:55:12.136Z,18.42
2022-10-04T10:57:59.077Z,16.63
2022-10-04T11:00:51.939Z,15.05
2022-10-04T11:03:51.685Z,14.50
2022-10-04T11:06:56.775Z,13.38
2022-10-04T11:09:38.450Z,12.45
2022-10-04T11:12:10.653Z,12.25
2022-10-04T11:15:15.299Z,13.95
2022-10-04T11:18:06.517Z,12.60
2022-10-04T11:21:06.641Z,13.77
2022-10-04T11:24:12.829Z,12.07
2022-10-04T11:26:42.239Z,11.43
2022-10-04T11:29:20.793Z,11.32
2022-10-04T11:32:02.091Z,11.35
2022-10-04T11:35:07.060Z,10.13
2022-10-04T11:37:36.353Z,10.88
2022-10-04T11:40:11.937Z,10.65
2022-10-04T11:42:53.979Z,11.32
2022-10-04T11:46:09.885Z,10.93
2022-10-04T11:49:14.479Z,9.75
2022-10-04T11:52:04.563Z,10.43
2022-10-04T11:54:47.906Z,12.02
2022-10-04T11:57:31.404Z,9.75
2022-10-04T12:00:23.530Z,10.10
2022-10-04T12:03:09.385Z,9.77
2022-10-04T12:05:51.239Z,10.73
2022-10-04T12:08:33.326Z,9.98
2022-10-04T12:11:05.650Z,9.27
2022-10-04T12:14:04.122Z,10.43
2022-10-04T12:16:49.455Z,9.60
2022-10-04T12:19:41.680Z,12.40
2022-10-04T12:22:26.555Z,14.32
2022-10-04T12:25:30.521Z,11.15
2022-10-04T12:28:16.020Z,9.30
2022-10-04T12:31:04.204Z,10.52
2022-10-04T12:33:54.605Z,10.63
2022-10-04T12:36:41.092Z,10.07
2022-10-04T12:39:29.597Z,9.98
2022-10-04T12:42:08.108Z,11.10
2022-10-04T12:45:00.484Z,9.57
2022-10-04T12:47:50.658Z,10.07
2022-10-04T12:50:35.558Z,9.27
2022-10-04T12:53:23.251Z,9.20
2022-10-04T12:56:22.315Z,8.70
2022-10-04T12:59:03.876Z,9.82
2022-10-04T13:02:08.707Z,9.73
2022-10-04T13:05:17.290Z,11.50
2022-10-04T13:08:32.309Z,7.82
2022-10-04T13:11:04.840Z,27.42
2022-10-04T13:13:50.091Z,9.50
2022-10-04T13:20:14.746Z,11.02
2022-10-04T13:22:57.831Z,7.88
2022-10-04T13:26:01.210Z,8.63
2022-10-04T13:28:56.485Z,8.90
2022-10-04T13:31:40.963Z,7.45
2022-10-04T13:34:36.928Z,7.05
2022-10-04T13:37:15.734Z,7.88
2022-10-04T13:39:50.849Z,7.40
2022-10-04T13:42:48.801Z,7.90
2022-10-04T13:45:37.022Z,8.98
2022-10-04T13:48:25.511Z,9.43
2022-10-04T13:51:07.276Z,9.05
2022-10-04T13:54:05.597Z,9.75
2022-10-04T13:56:37.987Z,8.98
2022-10-04T13:59:23.302Z,9.50
2022-10-04T14:02:13.596Z,8.68
2022-10-04T14:05:01.674Z,9.20
2022-10-04T14:07:37.432Z,10.45
2022-10-04T14:10:28.639Z,11.20
2022-10-04T14:13:36.419Z,9.75
2022-10-04T14:16:06.271Z,10.10
2022-10-04T14:19:02.389Z,11.88
2022-10-04T14:21:43.815Z,11.07
2022-10-04T14:24:36.476Z,10.93
2022-10-04T14:27:27.952Z,11.55
2022-10-04T14:30:28.521Z,10.38
2022-10-04T14:33:27.434Z,11.27
2022-10-04T14:35:54.314Z,10.68
2022-10-04T14:39:02.490Z,10.95
2022-10-04T14:41:32.168Z,11.85
2022-10-04T14:44:45.231Z,10.90
2022-10-04T14:47:30.349Z,10.73
2022-10-04T14:50:03.123Z,9.75
2022-10-04T14:53:01.974Z,9.88
2022-10-04T14:55:54.786Z,10.20
2022-10-04T14:58:53.877Z,9.77
2022-10-04T15:01:23.203Z,9.80
2022-10-04T15:04:15.719Z,13.07
2022-10-04T15:06:58.352Z,11.98
2022-10-04T15:09:57.180Z,12.68
2022-10-04T15:13:11.158Z,10.88
2022-10-04T15:16:00.478Z,11.05
2022-10-04T15:18:39.597Z,12.30
2022-10-04T15:21:34.455Z,12.65
2022-10-04T15:24:27.628Z,13.63
2022-10-04T15:27:09.806Z,13.55
2022-10-04T15:30:11.007Z,12.73
2022-10-04T15:32:56.553Z,22.42
2022-10-04T15:35:48.352Z,13.05
2022-10-04T15:41:46.077Z,12.10
2022-10-04T15:44:28.258Z,11.50
2022-10-04T15:47:30.989Z,11.88
2022-10-04T15:50:21.305Z,11.88
2022-10-04T15:53:03.162Z,12.70
2022-10-04T15:55:35.657Z,11.93
2022-10-04T15:58:39.744Z,13.15
2022-10-04T16:01:43.763Z,13.68
2022-10-04T16:04:32.112Z,13.27
2022-10-04T16:07:28.002Z,13.38
2022-10-04T16:10:01.723Z,11.65
2022-10-04T16:12:50.121Z,44.97
2022-10-04T16:15:36.899Z,17.45
2022-10-04T16:18:31.302Z,14.93
2022-10-04T16:21:01.115Z,12.07
2022-10-04T16:23:36.396Z,11.57
2022-10-04T16:26:09.557Z,11.68
2022-10-04T16:28:56.205Z,12.55
2022-10-04T16:31:44.045Z,12.05
2022-10-04T16:34:45.994Z,11.65
2022-10-04T16:37:24.688Z,13.93
2022-10-04T16:40:05.623Z,11.75
2022-10-04T16:42:47.369Z,12.37
2022-10-04T16:45:38.518Z,11.90
2022-10-04T16:48:15.776Z,14.27
2022-10-04T16:51:26.847Z,14.52
2022-10-04T16:54:04.755Z,12.98
2022-10-04T16:57:00.526Z,12.52
2022-10-04T16:59:39.167Z,13.38
2022-10-04T17:02:29.315Z,13.20
2022-10-04T17:05:13.776Z,14.18
2022-10-04T17:08:04.831Z,13.52
2022-10-04T17:10:49.587Z,14.68
2022-10-04T17:13:27.774Z,14.02
2022-10-04T17:16:06.754Z,14.13
2022-10-04T17:19:10.591Z,14.23
2022-10-04T17:22:02.861Z,14.60
2022-10-04T17:24:45.037Z,16.00
2022-10-04T17:27:34.118Z,15.85
2022-10-04T17:30:18.360Z,16.90
2022-10-04T17:32:51.203Z,18.08
2022-10-04T17:35:46.506Z,18.80
2022-10-04T17:38:18.999Z,18.75
2022-10-04T17:41:15.038Z,16.98
2022-10-04T17:44:06.804Z,17.35
2022-10-04T17:46:47.545Z,18.05
2022-10-04T17:50:02.105Z,18.83
2022-10-04T17:52:59.048Z,20.35
2022-10-04T17:55:35.840Z,19.77
2022-10-04T17:58:30.477Z,18.48
2022-10-04T18:01:08.048Z,18.52
2022-10-04T18:03:43.961Z,19.35
2022-10-04T18:06:39.872Z,18.95
2022-10-04T18:09:19.413Z,19.98
2022-10-04T18:12:14.544Z,18.30
2022-10-04T18:15:07.246Z,20.15
2022-10-04T18:17:48.441Z,18.42
2022-10-04T18:20:33.805Z,19.23
2022-10-04T18:23:02.902Z,19.38
2022-10-04T18:25:32.083Z,18.60
2022-10-04T18:28:07.528Z,18.08
2022-10-04T18:30:51.367Z,19.48
2022-10-04T18:33:44.256Z,18.90
2022-10-04T18:36:46.098Z,19.95
2022-10-04T18:39:13.444Z,19.27
2022-10-04T18:41:53.270Z,18.92
2022-10-04T18:44:29.676Z,17.33
2022-10-04T18:46:59.488Z,18.90
2022-10-04T18:49:31.077Z,18.67
2022-10-04T18:52:09.900Z,18.83
2022-10-04T18:54:36.589Z,17.38
2022-10-04T18:57:27.433Z,17.88
2022-10-04T19:00:32.092Z,17.40
2022-10-04T19:03:31.098Z,17.45
2022-10-04T19:06:30.572Z,19.00
2022-10-04T19:09:23.649Z,18.90
2022-10-04T19:12:04.985Z,19.15
2022-10-04T19:14:47.945Z,19.13
2022-10-04T19:17:26.398Z,19.02
2022-10-04T19:20:19.085Z,19.45
2022-10-04T19:23:17.505Z,18.40
2022-10-04T19:26:17.682Z,18.63
2022-10-04T19:28:38.553Z,19.27
2022-10-04T19:31:17.548Z,18.92
2022-10-04T19:33:59.287Z,18.15
2022-10-04T19:36:50.299Z,18.60
2022-10-04T19:39:41.711Z,18.75
2022-10-04T19:42:19.221Z,17.67
2022-10-04T19:45:04.976Z,17.65
2022-10-04T19:47:35.224Z,18.27
2022-10-04T19:50:05.328Z,18.02
2022-10-04T19:52:34.848Z,17.70
2022-10-04T19:55:33.961Z,18.48
2022-10-04T19:58:03.831Z,17.92
2022-10-04T20:00:31.320Z,18.35
2022-10-04T20:02:58.085Z,17.58
2022-10-04T20:05:25.304Z,18.73
2022-10-04T20:07:57.337Z,18.70
2022-10-04T20:10:37.307Z,19.05
2022-10-04T20:13:21.401Z,18.27
2022-10-04T20:15:53.926Z,19.15
2022-10-04T20:18:32.893Z,18.38
2022-10-04T20:21:00.235Z,18.85
2022-10-04T20:23:49.627Z,18.88
2022-10-04T20:26:53.569Z,18.88
2022-10-04T20:29:39.274Z,19.13
2022-10-04T20:32:11.027Z,19.35
2022-10-04T20:34:37.666Z,18.52
2022-10-04T20:37:09.076Z,18.95
2022-10-04T20:39:41.899Z,19.48
2022-10-04T20:42:22.804Z,18.70
2022-10-04T20:44:56.663Z,14.75
2022-10-04T20:47:47.277Z,15.90
2022-10-04T20:50:35.462Z,16.35
2022-10-04T20:53:14.082Z,17.92
2022-10-04T20:55:41.320Z,18.13
2022-10-04T20:58:34.978Z,17.98
2022-10-04T21:01:38.081Z,19.27
2022-10-04T21:04:35.005Z,19.05
2022-10-04T21:07:06.962Z,17.90
2022-10-04T21:09:36.900Z,18.08
2022-10-04T21:12:05.147Z,18.75
2022-10-04T21:14:33.803Z,19.05
2022-10-04T21:17:05.243Z,18.20
2022-10-04T21:19:35.825Z,19.55
2022-10-04T21:22:05.258Z,18.52
2022-10-04T21:24:35.845Z,19.45
2022-10-04T21:27:03.239Z,19.40
2022-10-04T21:29:30.022Z,20.20
2022-10-04T21:31:57.619Z,19.33
2022-10-04T21:34:51.457Z,20.23
2022-10-04T21:37:11.370Z,20.33
2022-10-04T21:39:38.124Z,20.80
2022-10-04T21:42:05.430Z,21.60
2022-10-04T21:44:32.185Z,20.98
2022-10-04T21:46:58.962Z,20.30
2022-10-04T21:49:26.064Z,19.42
2022-10-04T21:51:52.790Z,20.58
2022-10-04T21:54:20.175Z,18.38
2022-10-04T21:56:47.173Z,19.35
2022-10-04T21:59:14.428Z,19.48
2022-10-04T22:01:41.140Z,20.13
2022-10-04T22:04:08.132Z,19.55
2022-10-04T22:06:34.954Z,20.42
2022-10-04T22:09:01.702Z,19.83
2022-10-04T22:11:28.502Z,20.13
2022-10-04T22:13:55.185Z,19.58
2022-10-04T22:16:22.122Z,18.67
2022-10-04T22:18:48.911Z,18.73
2022-10-04T22:21:15.787Z,18.55
2022-10-04T22:23:44.550Z,20.05
2022-10-04T22:26:19.730Z,19.23
2022-10-04T22:28:49.785Z,18.90
2022-10-04T22:31:19.111Z,19.38
2022-10-04T22:33:48.742Z,20.17
2022-10-04T22:36:21.042Z,18.75
2022-10-04T22:39:11.013Z,19.02
2022-10-04T22:41:53.448Z,18.05
2022-10-04T22:44:30.234Z,18.50
2022-10-04T22:46:59.802Z,18.65
2022-10-04T22:49:30.467Z,18.40
2022-10-04T22:51:59.078Z,18.02
2022-10-04T22:54:31.280Z,18.00
2022-10-04T22:56:58.354Z,18.23
2022-10-04T22:59:35.962Z,19.35
2022-10-04T23:02:10.855Z,19.45
2022-10-04T23:04:37.737Z,18.00
2022-10-04T23:07:04.438Z,17.60
2022-10-04T23:09:31.247Z,18.55
2022-10-04T23:11:57.972Z,18.45
2022-10-04T23:14:24.838Z,19.10
2022-10-04T23:16:51.579Z,19.30
2022-10-04T23:19:20.237Z,19.75
2022-10-04T23:21:49.102Z,19.15
2022-10-04T23:24:19.907Z,19.80
2022-10-04T23:26:54.669Z,19.35
2022-10-04T23:29:23.623Z,19.20
2022-10-04T23:31:51.565Z,19.17
2022-10-04T23:34:36.996Z,18.83
2022-10-04T23:37:13.565Z,18.33
2022-10-04T23:39:40.672Z,18.02
2022-10-04T23:42:19.027Z,18.10
2022-10-04T23:44:47.997Z,18.88
2022-10-04T23:47:17.528Z,19.38
2022-10-04T23:49:45.730Z,18.52
2022-10-04T23:52:22.553Z,19.70
2022-10-04T23:54:50.851Z,20.00
2022-10-04T23:57:23.041Z,20.50
2022-10-04T23:59:50.234Z,19.85
